Time;durP1;ratioP1;P1;durP2;ratioP2;P2;SDS_P1;SDS_P2;PMS_P1;PMS_P2;Temp;Humidity;BMP_temperature;BMP_pressure;BME280_temperature;BME280_humidity;BME280_pressure;Samples;Min_cycle;Max_cycle;Signal;HPM_P1;HPM_P2
2022/12/22 03:26:42;;;;;;;2.33;1.33;;;;;;;;;;5036516;28;20053;-89
2022/12/22 03:29:09;;;;;;;1.15;1.13;;;;;;;;;;5018935;28;20056;-91
2022/12/22 03:31:36;;;;;;;1.30;1.20;;;;;;;;;;5018910;28;20060;-89
2022/12/22 03:34:04;;;;;;;1.23;1.23;;;;;;;;;;5019161;28;20060;-91
2022/12/22 03:36:32;;;;;;;1.02;1.00;;;;;;;;;;5018786;28;20136;-90
2022/12/22 03:38:59;;;;;;;0.82;0.82;;;;;;;;;;5018871;28;20510;-90
2022/12/22 03:46:58;;;;;;;1.15;1.10;;;;;;;;;;5036132;28;20041;-89
2022/12/22 03:49:25;;;;;;;1.40;1.30;;;;;;;;;;5018954;28;20077;-90
2022/12/22 03:51:53;;;;;;;1.33;1.30;;;;;;;;;;5018478;28;20383;-91
2022/12/22 03:54:21;;;;;;;1.70;1.13;;;;;;;;;;5018462;28;20057;-89
2022/12/22 03:56:49;;;;;;;1.05;1.05;;;;;;;;;;5016922;28;20053;-89
2022/12/22 03:59:17;;;;;;;1.48;1.17;;;;;;;;;;5018719;28;20059;-90
2022/12/22 04:01:46;;;;;;;1.15;1.15;;;;;;;;;;5018057;28;20061;-88
2022/12/22 04:04:14;;;;;;;1.50;1.40;;;;;;;;;;5018310;28;20077;-89
2022/12/22 04:06:41;;;;;;;0.93;0.93;;;;;;;;;;5017942;28;20056;-89
2022/12/22 04:09:09;;;;;;;1.25;1.25;;;;;;;;;;5018438;28;20053;-89
2022/12/22 04:14:22;;;;;;;1.15;1.15;;;;;;;;;;5035292;28;20045;-90
2022/12/22 04:16:57;;;;;;;1.60;1.50;;;;;;;;;;5019766;28;20045;-89
2022/12/22 04:19:24;;;;;;;1.55;1.45;;;;;;;;;;5025967;28;20045;-89
2022/12/22 04:21:51;;;;;;;2.85;1.40;;;;;;;;;;5019665;28;20393;-90
2022/12/22 04:24:19;;;;;;;1.63;1.60;;;;;;;;;;5018102;28;20057;-91
2022/12/22 04:26:46;;;;;;;1.63;1.58;;;;;;;;;;5017863;28;20052;-90
2022/12/22 04:29:13;;;;;;;2.83;2.08;;;;;;;;;;5017947;28;20052;-90
2022/12/22 04:31:40;;;;;;;1.98;1.88;;;;;;;;;;5017957;28;20052;-90
2022/12/22 04:34:08;;;;;;;1.98;1.88;;;;;;;;;;5018010;28;20077;-90
2022/12/22 04:36:35;;;;;;;2.45;2.00;;;;;;;;;;5017952;28;20084;-90
2022/12/22 04:39:02;;;;;;;2.45;2.25;;;;;;;;;;5018213;28;20084;-90
2022/12/22 04:41:29;;;;;;;2.95;2.75;;;;;;;;;;5017657;28;20057;-90
2022/12/22 04:43:56;;;;;;;2.17;2.08;;;;;;;;;;5018013;28;20049;-90
2022/12/22 04:46:24;;;;;;;2.60;2.40;;;;;;;;;;5017453;28;20498;-90
2022/12/22 04:48:51;;;;;;;2.20;2.10;;;;;;;;;;5017536;28;20049;-90
2022/12/22 04:51:26;;;;;;;2.20;2.10;;;;;;;;;;5018809;28;20076;-90
2022/12/22 04:53:53;;;;;;;2.03;1.92;;;;;;;;;;5017073;28;20133;-89
2022/12/22 04:56:20;;;;;;;2.13;2.03;;;;;;;;;;5017249;28;20049;-90
2022/12/22 04:58:47;;;;;;;2.10;2.00;;;;;;;;;;5017668;28;20477;-91
2022/12/22 05:01:16;;;;;;;2.17;2.08;;;;;;;;;;5018496;28;20084;-90
2022/12/22 05:03:44;;;;;;;2.38;2.10;;;;;;;;;;5017808;28;20132;-90
2022/12/22 05:06:11;;;;;;;1.67;1.65;;;;;;;;;;5017058;28;20073;-90
2022/12/22 05:08:38;;;;;;;1.95;1.83;;;;;;;;;;5017423;28;20045;-90
2022/12/22 05:11:06;;;;;;;3.10;2.05;;;;;;;;;;5017231;28;20041;-90
2022/12/22 05:13:33;;;;;;;2.17;2.08;;;;;;;;;;5016544;28;20133;-90
2022/12/22 05:16:10;;;;;;;1.63;1.60;;;;;;;;;;5017103;28;20072;-90
2022/12/22 05:18:38;;;;;;;2.03;1.92;;;;;;;;;;5017168;28;20049;-90
2022/12/22 05:21:07;;;;;;;1.40;1.40;;;;;;;;;;5017304;28;20049;-91
2022/12/22 05:23:34;;;;;;;1.80;1.70;;;;;;;;;;5016952;28;20413;-90
2022/12/22 05:26:01;;;;;;;1.45;1.35;;;;;;;;;;5016756;28;20053;-90
2022/12/22 05:28:28;;;;;;;1.48;1.38;;;;;;;;;;5017445;28;20045;-90
2022/12/22 05:30:55;;;;;;;1.20;1.20;;;;;;;;;;5017047;28;20053;-90
2022/12/22 05:33:23;;;;;;;1.05;1.05;;;;;;;;;;5016760;28;20053;-90
2022/12/22 05:35:50;;;;;;;1.10;1.10;;;;;;;;;;5017088;28;20060;-90
2022/12/22 05:38:17;;;;;;;0.98;0.98;;;;;;;;;;5016603;28;20068;-90
2022/12/22 05:40:44;;;;;;;1.10;1.05;;;;;;;;;;5016435;28;20136;-90
2022/12/22 05:43:11;;;;;;;0.70;0.70;;;;;;;;;;5016720;28;20056;-91
2022/12/22 05:45:39;;;;;;;0.70;0.70;;;;;;;;;;5017271;28;20538;-90
2022/12/22 05:48:06;;;;;;;0.80;0.80;;;;;;;;;;5016905;28;20582;-93
2022/12/22 05:50:33;;;;;;;0.63;0.63;;;;;;;;;;5016812;28;20049;-90
2022/12/22 05:53:00;;;;;;;0.65;0.65;;;;;;;;;;5017043;28;20049;-90
2022/12/22 05:55:28;;;;;;;0.85;0.85;;;;;;;;;;5016885;28;20053;-90
2022/12/22 05:57:55;;;;;;;1.00;1.00;;;;;;;;;;5016447;28;20061;-91
2022/12/22 06:00:22;;;;;;;0.80;0.80;;;;;;;;;;5016653;28;20136;-91
2022/12/22 06:02:49;;;;;;;1.17;1.02;;;;;;;;;;5016447;28;20561;-91
2022/12/22 06:05:17;;;;;;;2.13;1.92;;;;;;;;;;5016679;28;20045;-91
2022/12/22 06:07:44;;;;;;;2.20;2.10;;;;;;;;;;5017187;28;20279;-92
2022/12/22 06:10:12;;;;;;;2.47;2.30;;;;;;;;;;5017340;28;20049;-89
2022/12/22 06:12:40;;;;;;;2.63;2.42;;;;;;;;;;5016034;28;20084;-90
2022/12/22 06:15:08;;;;;;;2.90;2.67;;;;;;;;;;5016207;28;20125;-89
2022/12/22 06:17:35;;;;;;;3.08;2.80;;;;;;;;;;5016532;28;20478;-90
2022/12/22 06:20:11;;;;;;;3.20;2.42;;;;;;;;;;5017867;28;20057;-90
2022/12/22 06:22:38;;;;;;;3.65;3.10;;;;;;;;;;5016101;28;20508;-89
2022/12/22 06:25:06;;;;;;;3.65;3.35;;;;;;;;;;5020418;28;20049;-90
2022/12/22 06:27:36;;;;;;;3.22;2.92;;;;;;;;;;5020600;28;20060;-90
2022/12/22 06:30:04;;;;;;;5.15;3.60;;;;;;;;;;5020171;28;20079;-91
2022/12/22 06:32:31;;;;;;;4.90;3.20;;;;;;;;;;5020510;28;20050;-90
2022/12/22 06:34:58;;;;;;;4.65;3.88;;;;;;;;;;5021474;28;20072;-90
2022/12/22 06:37:26;;;;;;;5.10;3.08;;;;;;;;;;5020172;28;20046;-90
2022/12/22 06:39:53;;;;;;;4.57;3.35;;;;;;;;;;5020120;28;20100;-91
2022/12/22 06:45:07;;;;;;;3.35;3.05;;;;;;;;;;5037561;28;20556;-90
2022/12/22 06:47:34;;;;;;;2.88;2.60;;;;;;;;;;5019909;28;20084;-90
2022/12/22 06:50:01;;;;;;;3.55;2.50;;;;;;;;;;5019979;28;20071;-90
2022/12/22 06:52:28;;;;;;;2.42;2.20;;;;;;;;;;5019999;28;20085;-90
2022/12/22 06:54:55;;;;;;;4.13;3.08;;;;;;;;;;5019853;28;20056;-92
2022/12/22 06:57:23;;;;;;;3.08;2.53;;;;;;;;;;5020026;28;20501;-90
2022/12/22 06:59:50;;;;;;;2.65;1.85;;;;;;;;;;5021278;28;20068;-90
2022/12/22 07:02:23;;;;;;;2.88;2.50;;;;;;;;;;5021298;28;20088;-90
2022/12/22 07:04:51;;;;;;;2.50;2.15;;;;;;;;;;5020147;28;20100;-91
2022/12/22 07:07:18;;;;;;;1.77;1.67;;;;;;;;;;5019403;28;20136;-90
2022/12/22 07:09:45;;;;;;;4.88;1.98;;;;;;;;;;5019568;28;20041;-91
2022/12/22 07:12:13;;;;;;;7.40;2.55;;;;;;;;;;5019308;28;20049;-91
2022/12/22 07:14:40;;;;;;;5.38;2.35;;;;;;;;;;5019763;28;20500;-90
2022/12/22 07:17:08;;;;;;;9.43;4.65;;;;;;;;;;5019426;28;20489;-91
2022/12/22 07:19:35;;;;;;;4.32;3.30;;;;;;;;;;5019342;28;20049;-91
2022/12/22 07:22:02;;;;;;;4.00;1.55;;;;;;;;;;5019451;28;20144;-91
2022/12/22 07:24:29;;;;;;;11.75;2.80;;;;;;;;;;5019387;28;20412;-90
2022/12/22 07:26:57;;;;;;;13.20;2.97;;;;;;;;;;5019564;28;20559;-91
2022/12/22 07:29:24;;;;;;;14.93;2.63;;;;;;;;;;5019788;28;20061;-90
2022/12/22 07:31:51;;;;;;;2.38;1.40;;;;;;;;;;5001817;28;20085;-90
2022/12/22 07:34:19;;;;;;;2.90;1.27;;;;;;;;;;4998928;28;20058;-90
2022/12/22 07:36:46;;;;;;;1.50;1.40;;;;;;;;;;5017247;28;20049;-91
2022/12/22 07:39:13;;;;;;;2.25;1.23;;;;;;;;;;4999605;28;20136;-90
2022/12/22 07:44:26;;;;;;;1.65;1.33;;;;;;;;;;5016759;28;20500;-89
2022/12/22 07:46:54;;;;;;;1.27;1.17;;;;;;;;;;4999381;28;20395;-90
2022/12/22 07:52:07;;;;;;;1.00;0.98;;;;;;;;;;5016652;28;20054;-90
2022/12/22 07:54:35;;;;;;;0.70;0.70;;;;;;;;;;4999139;28;20060;-89
2022/12/22 07:57:08;;;;;;;0.60;0.55;;;;;;;;;;4999903;28;20065;-90
2022/12/22 07:59:35;;;;;;;1.90;1.02;;;;;;;;;;4998725;28;20092;-90
2022/12/22 08:02:02;;;;;;;0.75;0.75;;;;;;;;;;4998938;28;20144;-90
2022/12/22 08:04:30;;;;;;;1.00;0.77;;;;;;;;;;4998948;28;20076;-91
2022/12/22 08:06:57;;;;;;;0.73;0.73;;;;;;;;;;4998996;28;20077;-89
2022/12/22 08:09:24;;;;;;;0.68;0.60;;;;;;;;;;4999514;28;20064;-91
2022/12/22 08:11:51;;;;;;;6.57;3.67;;;;;;;;;;5016020;28;20046;-90
2022/12/22 08:14:19;;;;;;;5.97;5.05;;;;;;;;;;5015657;28;20509;-90
2022/12/22 08:16:46;;;;;;;6.35;3.28;;;;;;;;;;4998621;28;20050;-89
2022/12/22 08:19:13;;;;;;;0.80;0.80;;;;;;;;;;4999051;28;20060;-90
2022/12/22 08:21:41;;;;;;;0.70;0.60;;;;;;;;;;4998727;28;20049;-89
2022/12/22 08:24:17;;;;;;;0.77;0.75;;;;;;;;;;4999805;28;20080;-90
2022/12/22 08:26:50;;;;;;;0.70;0.70;;;;;;;;;;4998735;28;20042;-90
2022/12/22 08:29:23;;;;;;;0.93;0.75;;;;;;;;;;4998811;28;20050;-89
2022/12/22 08:31:50;;;;;;;0.90;0.90;;;;;;;;;;4998580;28;20419;-89
2022/12/22 08:34:17;;;;;;;1.05;0.95;;;;;;;;;;4998537;28;20144;-90
2022/12/22 08:36:47;;;;;;;0.70;0.55;;;;;;;;;;4998506;28;20521;-89
2022/12/22 08:39:15;;;;;;;0.82;0.80;;;;;;;;;;4998254;28;20137;-90
2022/12/22 08:41:49;;;;;;;0.70;0.70;;;;;;;;;;4998320;28;20054;-91
2022/12/22 08:44:17;;;;;;;0.85;0.70;;;;;;;;;;4998822;28;20046;-92
2022/12/22 08:46:45;;;;;;;0.75;0.63;;;;;;;;;;4998559;28;20351;-93
2022/12/22 08:49:12;;;;;;;0.90;0.90;;;;;;;;;;5004683;28;20086;-93
2022/12/22 08:51:39;;;;;;;1.75;0.70;;;;;;;;;;5007601;28;20419;-94
2022/12/22 08:54:11;;;;;;;0.50;0.50;;;;;;;;;;5012610;28;20085;-94
2022/12/22 08:56:40;;;;;;;6.97;1.50;;;;;;;;;;5011878;28;20049;-94
2022/12/22 08:59:11;;;;;;;12.10;1.85;;;;;;;;;;4993609;28;20049;-94
2022/12/22 09:01:46;;;;;;;7.85;1.35;;;;;;;;;;5025051;28;20475;-94
2022/12/22 09:04:15;;;;;;;20.50;7.45;;;;;;;;;;5025303;28;20069;-93
2022/12/22 09:06:42;;;;;;;13.25;9.07;;;;;;;;;;5006103;28;20116;-93
2022/12/22 09:09:11;;;;;;;4.55;2.63;;;;;;;;;;4992249;28;20046;-94
2022/12/22 09:11:39;;;;;;;1.63;1.50;;;;;;;;;;5026287;28;20048;-94
2022/12/22 09:14:07;;;;;;;4.82;0.70;;;;;;;;;;5007168;28;20046;-93
2022/12/22 09:16:35;;;;;;;2.15;0.90;;;;;;;;;;5024980;28;20501;-93
2022/12/22 09:19:03;;;;;;;1.88;0.80;;;;;;;;;;5024672;28;20045;-93
2022/12/22 09:21:30;;;;;;;1.33;1.25;;;;;;;;;;5001995;28;20053;-93
2022/12/22 09:23:58;;;;;;;5.93;5.32;;;;;;;;;;5001421;28;20060;-93
2022/12/22 09:26:27;;;;;;;1.63;0.80;;;;;;;;;;5000178;28;20115;-94
2022/12/22 09:28:55;;;;;;;2.25;2.15;;;;;;;;;;4999578;28;20141;-92
2022/12/22 09:31:23;;;;;;;1.40;1.30;;;;;;;;;;5000227;28;20053;-93
2022/12/22 09:33:50;;;;;;;0.30;0.30;;;;;;;;;;5002562;28;20050;-95
2022/12/22 09:36:19;;;;;;;0.20;0.20;;;;;;;;;;4998640;28;20050;-92
2022/12/22 09:38:47;;;;;;;0.25;0.25;;;;;;;;;;4997780;28;20092;-91
2022/12/22 09:41:16;;;;;;;0.30;0.30;;;;;;;;;;4998301;28;20108;-92
2022/12/22 09:43:43;;;;;;;0.40;0.30;;;;;;;;;;4997718;28;20053;-92
2022/12/22 09:46:18;;;;;;;0.13;0.13;;;;;;;;;;4997886;28;20091;-89
2022/12/22 09:48:46;;;;;;;0.30;0.30;;;;;;;;;;5014166;28;20045;-89
2022/12/22 09:51:14;;;;;;;1.45;0.30;;;;;;;;;;4997305;28;20054;-91
2022/12/22 09:53:47;;;;;;;;;;;;;;;;;;4997613;28;20058;-91
2022/12/22 09:56:16;;;;;;;0.32;0.30;;;;;;;;;;4997379;28;20415;-89
2022/12/22 09:58:43;;;;;;;3.13;0.40;;;;;;;;;;4995190;28;20054;-91
2022/12/22 10:01:13;;;;;;;1.65;0.50;;;;;;;;;;4997229;28;20524;-91
2022/12/22 10:03:54;;;;;;;0.63;0.30;;;;;;;;;;4997210;28;20546;-91
2022/12/22 10:06:42;;;;;;;0.52;0.50;;;;;;;;;;5002138;28;20096;-91
2022/12/22 10:09:29;;;;;;;0.88;0.28;;;;;;;;;;4996904;28;20050;-91
2022/12/22 10:12:18;;;;;;;1.17;0.30;;;;;;;;;;5013040;28;20057;-90
2022/12/22 10:14:46;;;;;;;0.28;0.20;;;;;;;;;;5013877;28;20129;-91
2022/12/22 10:17:19;;;;;;;0.70;0.35;;;;;;;;;;5014103;28;20050;-90
2022/12/22 10:19:47;;;;;;;0.63;0.30;;;;;;;;;;4996468;28;20057;-91
2022/12/22 10:22:31;;;;;;;0.82;0.40;;;;;;;;;;4996856;28;20050;-91
2022/12/22 10:25:02;;;;;;;1.13;0.30;;;;;;;;;;4996561;28;20509;-89
2022/12/22 10:27:31;;;;;;;0.82;0.50;;;;;;;;;;5013509;28;20395;-90
2022/12/22 10:30:18;;;;;;;0.95;0.70;;;;;;;;;;5013620;28;20479;-90
2022/12/22 10:33:04;;;;;;;0.68;0.40;;;;;;;;;;4996414;28;20077;-89
2022/12/22 10:35:55;;;;;;;0.22;0.22;;;;;;;;;;4996194;28;20048;-91
2022/12/22 10:38:27;;;;;;;0.52;0.52;;;;;;;;;;5006208;28;20560;-89
2022/12/22 10:41:01;;;;;;;0.75;0.55;;;;;;;;;;5013678;28;20045;-89
2022/12/22 10:43:36;;;;;;;0.85;0.60;;;;;;;;;;4996187;28;20057;-89
2022/12/22 10:46:04;;;;;;;1.80;0.60;;;;;;;;;;4996254;28;20501;-89
2022/12/22 10:48:36;;;;;;;0.30;0.25;;;;;;;;;;4996342;28;20186;-89
2022/12/22 10:51:06;;;;;;;2.40;0.20;;;;;;;;;;4996248;28;20529;-89
2022/12/22 10:53:41;;;;;;;0.80;0.40;;;;;;;;;;5012971;28;20482;-89
2022/12/22 10:56:17;;;;;;;0.30;0.30;;;;;;;;;;4995810;28;20085;-89
2022/12/22 10:58:48;;;;;;;1.10;0.50;;;;;;;;;;4995946;28;20418;-89
2022/12/22 11:01:23;;;;;;;0.30;0.25;;;;;;;;;;4995980;28;20084;-87
2022/12/22 11:03:50;;;;;;;2.15;0.32;;;;;;;;;;4995995;28;20046;-89
2022/12/22 11:06:18;;;;;;;0.65;0.35;;;;;;;;;;4996221;28;20046;-90
2022/12/22 11:08:45;;;;;;;0.70;0.20;;;;;;;;;;4996087;28;20414;-88
2022/12/22 11:11:34;;;;;;;0.75;0.35;;;;;;;;;;5000864;28;20124;-88
2022/12/22 11:14:19;;;;;;;1.80;0.63;;;;;;;;;;4999660;28;20050;-89
2022/12/22 11:16:46;;;;;;;1.50;0.80;;;;;;;;;;4999610;28;20056;-90
2022/12/22 11:19:32;;;;;;;2.58;0.98;;;;;;;;;;4999597;28;20049;-88
2022/12/22 11:22:06;;;;;;;2.50;0.98;;;;;;;;;;4999696;28;20080;-89
2022/12/22 11:24:53;;;;;;;2.28;1.05;;;;;;;;;;4999421;28;20076;-88
2022/12/22 11:27:47;;;;;;;2.45;1.52;;;;;;;;;;4999315;28;20045;-89
2022/12/22 11:30:17;;;;;;;0.98;0.80;;;;;;;;;;4993664;28;20473;-87
2022/12/22 11:33:06;;;;;;;2.17;0.63;;;;;;;;;;4999301;28;20050;-89
2022/12/22 11:35:49;;;;;;;2.10;0.50;;;;;;;;;;4999363;28;20052;-88
2022/12/22 11:38:31;;;;;;;0.40;0.30;;;;;;;;;;4999035;28;20050;-88
2022/12/22 11:41:00;;;;;;;2.28;0.40;;;;;;;;;;4998862;28;20410;-88
2022/12/22 11:43:40;;;;;;;1.10;0.38;;;;;;;;;;4999084;28;20046;-88
2022/12/22 11:46:25;;;;;;;2.63;0.25;;;;;;;;;;4998954;28;20058;-88
2022/12/22 11:48:55;;;;;;;1.60;0.60;;;;;;;;;;4998660;28;20113;-88
2022/12/22 11:51:22;;;;;;;1.55;0.47;;;;;;;;;;5016235;28;20088;-89
2022/12/22 11:54:04;;;;;;;1.27;0.55;;;;;;;;;;5015288;28;20159;-88
2022/12/22 11:56:46;;;;;;;2.13;0.65;;;;;;;;;;4999699;28;20129;-88
2022/12/22 11:59:32;;;;;;;1.85;0.73;;;;;;;;;;5015756;28;20132;-87
2022/12/22 12:02:15;;;;;;;0.50;0.30;;;;;;;;;;4998577;28;20045;-88
2022/12/22 12:05:01;;;;;;;1.05;0.40;;;;;;;;;;5015630;28;20070;-88
2022/12/22 12:07:37;;;;;;;1.90;0.35;;;;;;;;;;4998488;28;20046;-88
2022/12/22 12:10:13;;;;;;;1.17;0.40;;;;;;;;;;4998625;28;20053;-89
2022/12/22 12:12:53;;;;;;;1.50;1.20;;;;;;;;;;4998300;28;20054;-88
2022/12/22 12:15:36;;;;;;;2.08;0.38;;;;;;;;;;4998302;28;20061;-88
2022/12/22 12:18:18;;;;;;;0.40;0.40;;;;;;;;;;5015634;28;20093;-88
2022/12/22 12:21:06;;;;;;;4.70;0.77;;;;;;;;;;4997459;28;20053;-89
2022/12/22 12:23:51;;;;;;;0.65;0.20;;;;;;;;;;5014447;28;20085;-88
2022/12/22 12:26:20;;;;;;;1.05;0.40;;;;;;;;;;4997954;28;20050;-88
2022/12/22 12:29:01;;;;;;;0.52;0.20;;;;;;;;;;4998239;28;20050;-88
2022/12/22 12:31:35;;;;;;;1.50;0.35;;;;;;;;;;4998121;28;20141;-87
2022/12/22 12:34:02;;;;;;;;;;;;;;;;;;5015487;28;20476;-88
2022/12/22 12:36:39;;;;;;;0.32;0.30;;;;;;;;;;4997839;28;19947;-88
2022/12/22 12:39:09;;;;;;;1.02;0.38;;;;;;;;;;4997543;28;20490;-89
2022/12/22 12:41:48;;;;;;;1.30;0.10;;;;;;;;;;4997937;28;20042;-88
2022/12/22 12:44:17;;;;;;;0.57;0.20;;;;;;;;;;4997848;28;20100;-88
2022/12/22 12:46:51;;;;;;;7.68;0.63;;;;;;;;;;4998037;28;20108;-88
2022/12/22 12:49:33;;;;;;;32.45;3.10;;;;;;;;;;4997622;28;20100;-88
2022/12/22 12:52:11;;;;;;;1.25;0.40;;;;;;;;;;4997840;28;20058;-88
2022/12/22 12:54:48;;;;;;;3.42;0.40;;;;;;;;;;4997957;28;20556;-89
2022/12/22 12:57:24;;;;;;;1.50;0.20;;;;;;;;;;4998840;28;20046;-88
2022/12/22 12:59:52;;;;;;;2.75;0.30;;;;;;;;;;4998715;28;20062;-89
2022/12/22 13:02:36;;;;;;;1.40;0.30;;;;;;;;;;5000078;28;20148;-88
2022/12/22 13:05:23;;;;;;;0.63;0.30;;;;;;;;;;4999399;28;20057;-88
2022/12/22 13:08:08;;;;;;;0.73;0.32;;;;;;;;;;4999607;28;20042;-88
2022/12/22 13:10:45;;;;;;;4.10;0.40;;;;;;;;;;4999466;28;20053;-88
2022/12/22 13:13:33;;;;;;;7.32;1.10;;;;;;;;;;4999737;28;20049;-89
2022/12/22 13:16:01;;;;;;;3.58;2.88;;;;;;;;;;4998220;28;20144;-88
2022/12/22 13:18:28;;;;;;;3.10;2.80;;;;;;;;;;5000483;28;20042;-88
2022/12/22 13:21:05;;;;;;;5.07;2.47;;;;;;;;;;5002133;28;20054;-89
2022/12/22 13:23:55;;;;;;;1.67;0.60;;;;;;;;;;5003008;28;20104;-88
2022/12/22 13:26:43;;;;;;;1.52;0.77;;;;;;;;;;4999758;28;20506;-88
2022/12/22 13:29:17;;;;;;;3.20;0.75;;;;;;;;;;4997269;28;20474;-88
2022/12/22 13:31:49;;;;;;;0.82;0.60;;;;;;;;;;4997257;28;20054;-88
2022/12/22 13:34:16;;;;;;;0.80;0.43;;;;;;;;;;4996177;28;20050;-88
2022/12/22 13:36:44;;;;;;;2.97;0.70;;;;;;;;;;4997266;28;20162;-88
2022/12/22 13:39:14;;;;;;;3.35;0.90;;;;;;;;;;4997042;28;20065;-88
2022/12/22 13:41:42;;;;;;;0.60;0.60;;;;;;;;;;4997171;28;20048;-86
2022/12/22 13:44:18;;;;;;;0.80;0.80;;;;;;;;;;4997157;28;20121;-87
2022/12/22 13:46:46;;;;;;;1.77;1.40;;;;;;;;;;4997110;28;20061;-88
2022/12/22 13:49:15;;;;;;;1.83;0.70;;;;;;;;;;4996574;28;20053;-88
2022/12/22 13:52:03;;;;;;;3.65;1.38;;;;;;;;;;4999655;28;20049;-88
2022/12/22 13:54:36;;;;;;;0.73;0.73;;;;;;;;;;4996721;28;20057;-88
2022/12/22 13:57:04;;;;;;;2.17;1.90;;;;;;;;;;4996683;28;20053;-88
2022/12/22 13:59:38;;;;;;;6.18;2.30;;;;;;;;;;4996876;28;20060;-88
2022/12/22 14:02:08;;;;;;;3.55;3.25;;;;;;;;;;4996592;28;20069;-88
2022/12/22 14:04:37;;;;;;;5.80;4.28;;;;;;;;;;4997075;28;20077;-88
2022/12/22 14:07:15;;;;;;;9.70;5.95;;;;;;;;;;4996741;28;20513;-89
2022/12/22 14:09:46;;;;;;;7.97;5.90;;;;;;;;;;4996723;28;20064;-88
2022/12/22 14:12:15;;;;;;;8.50;6.72;;;;;;;;;;4996312;28;20128;-89
2022/12/22 14:14:43;;;;;;;7.57;6.95;;;;;;;;;;4996411;28;20080;-89
2022/12/22 14:17:22;;;;;;;3.78;3.40;;;;;;;;;;4996655;28;20442;-89
2022/12/22 14:19:50;;;;;;;3.80;3.50;;;;;;;;;;4996406;28;20057;-89
2022/12/22 14:22:20;;;;;;;4.35;3.63;;;;;;;;;;4996630;28;20441;-89
2022/12/22 14:24:53;;;;;;;6.65;3.58;;;;;;;;;;4996640;28;20494;-89
2022/12/22 14:27:31;;;;;;;3.50;3.20;;;;;;;;;;5014101;28;20046;-89
2022/12/22 14:29:59;;;;;;;8.15;3.25;;;;;;;;;;4996720;28;20057;-88
2022/12/22 14:32:36;;;;;;;5.80;2.70;;;;;;;;;;4996419;28;20052;-88
2022/12/22 14:35:03;;;;;;;5.07;3.10;;;;;;;;;;4996096;28;20506;-89
2022/12/22 14:37:30;;;;;;;5.43;3.92;;;;;;;;;;4996435;28;20320;-89
2022/12/22 14:39:59;;;;;;;13.68;5.85;;;;;;;;;;4996636;28;20498;-89
2022/12/22 14:42:26;;;;;;;5.95;5.10;;;;;;;;;;4996523;28;20406;-89
2022/12/22 14:44:53;;;;;;;5.82;5.32;;;;;;;;;;4998314;28;20062;-89
2022/12/22 14:47:25;;;;;;;6.97;6.40;;;;;;;;;;5000296;28;20088;-89
2022/12/22 14:50:01;;;;;;;10.18;7.38;;;;;;;;;;5000302;28;20489;-89
2022/12/22 14:52:36;;;;;;;13.15;10.85;;;;;;;;;;5000311;28;20049;-89
2022/12/22 14:55:04;;;;;;;9.27;7.47;;;;;;;;;;4999481;28;20391;-89
2022/12/22 14:57:35;;;;;;;7.75;7.00;;;;;;;;;;5000184;28;20081;-89
2022/12/22 15:00:05;;;;;;;10.63;9.52;;;;;;;;;;5000040;28;20050;-89
2022/12/22 15:02:39;;;;;;;23.23;17.02;;;;;;;;;;4999843;28;20057;-89
2022/12/22 15:05:08;;;;;;;20.85;18.85;;;;;;;;;;5000102;28;20108;-89
2022/12/22 15:07:43;;;;;;;18.90;16.98;;;;;;;;;;5000138;28;20060;-89
2022/12/22 15:10:35;;;;;;;14.75;11.02;;;;;;;;;;5002314;28;20050;-89
2022/12/22 15:13:04;;;;;;;12.65;11.32;;;;;;;;;;4999639;28;20050;-89
2022/12/22 15:15:32;;;;;;;13.10;11.77;;;;;;;;;;4999711;28;20383;-89
2022/12/22 15:17:59;;;;;;;16.92;12.48;;;;;;;;;;4999500;28;20057;-89
2022/12/22 15:20:27;;;;;;;15.20;12.90;;;;;;;;;;4999604;28;20123;-89
2022/12/22 15:23:08;;;;;;;10.55;9.55;;;;;;;;;;5001588;28;20050;-89
2022/12/22 15:25:35;;;;;;;13.52;12.13;;;;;;;;;;5001366;28;20054;-89
2022/12/22 15:28:02;;;;;;;27.15;23.35;;;;;;;;;;5000943;28;20414;-89
2022/12/22 15:30:29;;;;;;;30.38;23.33;;;;;;;;;;5008086;28;20145;-89
2022/12/22 15:32:59;;;;;;;26.38;22.40;;;;;;;;;;4999807;28;20049;-89
2022/12/22 15:35:31;;;;;;;22.80;19.58;;;;;;;;;;4999199;28;20054;-90
2022/12/22 15:37:58;;;;;;;11.65;9.18;;;;;;;;;;4999240;28;20206;-89
2022/12/22 15:40:26;;;;;;;11.77;10.48;;;;;;;;;;4999410;28;20060;-90
2022/12/22 15:42:53;;;;;;;13.32;10.73;;;;;;;;;;4999204;28;20056;-90
2022/12/22 15:45:21;;;;;;;8.90;7.53;;;;;;;;;;4999304;28;20046;-90
2022/12/22 15:47:51;;;;;;;8.40;6.35;;;;;;;;;;4999289;28;20575;-89
2022/12/22 15:50:19;;;;;;;8.93;7.35;;;;;;;;;;4998914;28;20049;-89
2022/12/22 15:52:49;;;;;;;8.82;7.80;;;;;;;;;;4999210;28;20137;-90
2022/12/22 15:55:17;;;;;;;7.10;6.53;;;;;;;;;;4998174;28;20054;-90
2022/12/22 15:57:44;;;;;;;8.88;7.47;;;;;;;;;;4997088;28;20056;-90
2022/12/22 16:00:12;;;;;;;16.90;14.32;;;;;;;;;;4999014;28;20076;-90
2022/12/22 16:02:40;;;;;;;17.52;14.32;;;;;;;;;;4998700;28;20046;-89
2022/12/22 16:05:07;;;;;;;20.67;17.20;;;;;;;;;;4998692;28;20053;-89
2022/12/22 16:07:35;;;;;;;23.00;17.10;;;;;;;;;;5015795;28;20479;-90
2022/12/22 16:10:03;;;;;;;21.58;17.13;;;;;;;;;;4998532;28;20052;-90
2022/12/22 16:12:31;;;;;;;23.73;17.67;;;;;;;;;;4998878;28;20060;-90
2022/12/22 16:14:59;;;;;;;23.83;19.55;;;;;;;;;;5015251;28;20518;-89
2022/12/22 16:17:27;;;;;;;23.95;18.58;;;;;;;;;;4998615;28;20046;-89
2022/12/22 16:19:54;;;;;;;30.20;22.52;;;;;;;;;;4998573;28;20056;-90
2022/12/22 16:22:30;;;;;;;33.28;22.20;;;;;;;;;;4998549;28;20108;-89
2022/12/22 16:24:58;;;;;;;26.73;18.92;;;;;;;;;;4998474;28;20068;-90
2022/12/22 16:27:25;;;;;;;32.05;21.77;;;;;;;;;;4997992;28;20502;-89
2022/12/22 16:29:53;;;;;;;43.38;25.77;;;;;;;;;;4998332;28;20137;-90
2022/12/22 16:32:25;;;;;;;26.48;18.25;;;;;;;;;;5015331;28;20053;-89
2022/12/22 16:34:52;;;;;;;23.90;17.35;;;;;;;;;;4998041;28;20508;-90
2022/12/22 16:37:20;;;;;;;13.23;10.00;;;;;;;;;;5015217;28;20046;-90
2022/12/22 16:39:47;;;;;;;20.00;15.15;;;;;;;;;;4997901;28;20499;-90
2022/12/22 16:42:16;;;;;;;20.17;15.55;;;;;;;;;;4997790;28;20437;-90
2022/12/22 16:45:03;;;;;;;10.75;9.57;;;;;;;;;;5000128;28;20501;-90
2022/12/22 16:47:34;;;;;;;15.23;10.73;;;;;;;;;;5015518;28;20045;-90
2022/12/22 16:50:02;;;;;;;14.30;10.50;;;;;;;;;;5014856;28;20096;-90
2022/12/22 16:52:35;;;;;;;42.50;27.77;;;;;;;;;;4997932;28;20605;-90
2022/12/22 16:55:02;;;;;;;46.90;31.48;;;;;;;;;;5014443;28;20133;-90
2022/12/22 16:57:31;;;;;;;46.92;32.65;;;;;;;;;;4998041;28;20104;-90
2022/12/22 16:59:58;;;;;;;34.92;24.25;;;;;;;;;;4997570;28;20588;-89
2022/12/22 17:02:27;;;;;;;34.92;22.10;;;;;;;;;;4997544;28;20057;-90
2022/12/22 17:04:56;;;;;;;23.75;18.42;;;;;;;;;;4997582;28;20050;-90
2022/12/22 17:07:23;;;;;;;26.42;23.02;;;;;;;;;;4997455;28;20060;-90
2022/12/22 17:09:53;;;;;;;15.73;11.93;;;;;;;;;;4997486;28;20054;-90
2022/12/22 17:12:29;;;;;;;29.27;10.70;;;;;;;;;;4997403;28;20049;-90
2022/12/22 17:14:58;;;;;;;8.75;7.18;;;;;;;;;;4997127;28;20501;-90
2022/12/22 17:17:25;;;;;;;8.32;6.38;;;;;;;;;;4997377;28;20132;-88
2022/12/22 17:20:01;;;;;;;22.85;11.63;;;;;;;;;;4998706;28;20475;-90
2022/12/22 17:22:30;;;;;;;16.10;12.98;;;;;;;;;;4997600;28;20046;-90
2022/12/22 17:24:59;;;;;;;16.75;12.57;;;;;;;;;;4997211;28;20049;-89
2022/12/22 17:27:29;;;;;;;46.17;25.05;;;;;;;;;;4997430;28;20092;-89
2022/12/22 17:29:57;;;;;;;43.72;26.23;;;;;;;;;;4997106;28;20132;-90
2022/12/22 17:32:24;;;;;;;44.38;25.20;;;;;;;;;;4996919;28;20053;-90
2022/12/22 17:34:51;;;;;;;33.10;21.35;;;;;;;;;;4997149;28;20065;-90
2022/12/22 17:37:20;;;;;;;34.65;22.70;;;;;;;;;;4996876;28;20056;-89
2022/12/22 17:39:50;;;;;;;31.42;19.80;;;;;;;;;;4997210;28;20137;-89
2022/12/22 17:42:18;;;;;;;44.13;21.13;;;;;;;;;;4996926;28;20049;-89
2022/12/22 17:44:46;;;;;;;60.92;31.70;;;;;;;;;;4996982;28;20137;-89
2022/12/22 17:47:14;;;;;;;65.50;30.60;;;;;;;;;;4996691;28;20141;-88
2022/12/22 17:49:42;;;;;;;34.95;20.33;;;;;;;;;;4996875;28;20069;-89
2022/12/22 17:52:17;;;;;;;39.13;25.60;;;;;;;;;;4996779;28;20073;-89
2022/12/22 17:54:45;;;;;;;46.40;26.52;;;;;;;;;;4996348;28;20056;-89
2022/12/22 17:57:20;;;;;;;65.05;31.90;;;;;;;;;;4996664;28;20054;-90
2022/12/22 17:59:48;;;;;;;50.05;31.02;;;;;;;;;;4997651;28;20468;-89
2022/12/22 18:02:20;;;;;;;35.42;23.90;;;;;;;;;;4998075;28;20132;-89
2022/12/22 18:04:48;;;;;;;35.42;22.58;;;;;;;;;;4996323;28;20046;-89
2022/12/22 18:07:18;;;;;;;42.90;26.02;;;;;;;;;;4996707;28;20050;-90
2022/12/22 18:09:45;;;;;;;51.65;29.42;;;;;;;;;;4996667;28;20048;-89
2022/12/22 18:12:21;;;;;;;44.67;24.85;;;;;;;;;;4996308;28;20068;-89
2022/12/22 18:14:49;;;;;;;35.40;21.65;;;;;;;;;;4996513;28;20049;-89
2022/12/22 18:17:27;;;;;;;45.30;24.17;;;;;;;;;;4996044;28;20054;-90
2022/12/22 18:20:01;;;;;;;29.80;19.73;;;;;;;;;;4999719;28;20053;-90
2022/12/22 18:22:29;;;;;;;41.47;23.92;;;;;;;;;;5000151;28;20053;-90
2022/12/22 18:24:57;;;;;;;39.35;23.88;;;;;;;;;;5000469;28;20081;-90
2022/12/22 18:27:24;;;;;;;37.25;23.33;;;;;;;;;;5000497;28;20475;-90
2022/12/22 18:29:51;;;;;;;40.97;24.10;;;;;;;;;;5000433;28;20542;-90
2022/12/22 18:32:19;;;;;;;58.55;27.88;;;;;;;;;;5000726;28;20104;-90
2022/12/22 18:34:53;;;;;;;36.90;22.13;;;;;;;;;;5001449;28;20052;-90
2022/12/22 18:37:21;;;;;;;30.20;19.15;;;;;;;;;;5000603;28;20073;-90
2022/12/22 18:39:48;;;;;;;41.45;24.73;;;;;;;;;;5000559;28;20104;-90
2022/12/22 18:42:20;;;;;;;24.92;16.10;;;;;;;;;;5000213;28;20054;-90